sensor_id;sensor_type;location;lat;lon;timestamp;P1;durP1;ratioP1;P2;durP2;ratioP2
21354;SDS011;10835;50.148;19.760;2023-12-28T00:02:15;20.60;;;6.80;;
21354;SDS011;10835;50.148;19.760;2023-12-28T00:05:17;10.30;;;3.85;;
21354;SDS011;10835;50.148;19.760;2023-12-28T00:08:19;10.38;;;4.60;;
21354;SDS011;10835;50.148;19.760;2023-12-28T00:11:23;7.65;;;3.72;;
21354;SDS011;10835;50.148;19.760;2023-12-28T00:14:25;11.10;;;4.10;;
21354;SDS011;10835;50.148;19.760;2023-12-28T00:17:27;9.38;;;3.90;;
21354;SDS011;10835;50.148;19.760;2023-12-28T00:20:29;10.77;;;4.38;;
21354;SDS011;10835;50.148;19.760;2023-12-28T00:23:31;38.58;;;12.68;;
21354;SDS011;10835;50.148;19.760;2023-12-28T00:26:35;19.10;;;6.88;;
21354;SDS011;10835;50.148;19.760;2023-12-28T00:29:30;9.57;;;4.82;;
21354;SDS011;10835;50.148;19.760;2023-12-28T00:32:27;12.25;;;5.05;;
21354;SDS011;10835;50.148;19.760;2023-12-28T00:35:22;17.05;;;5.88;;
21354;SDS011;10835;50.148;19.760;2023-12-28T00:38:17;16.00;;;7.25;;
21354;SDS011;10835;50.148;19.760;2023-12-28T00:41:19;12.00;;;4.80;;
21354;SDS011;10835;50.148;19.760;2023-12-28T00:44:24;12.05;;;4.65;;
21354;SDS011;10835;50.148;19.760;2023-12-28T00:48:22;13.65;;;4.80;;
21354;SDS011;10835;50.148;19.760;2023-12-28T00:51:17;15.40;;;5.07;;
21354;SDS011;10835;50.148;19.760;2023-12-28T00:54:19;13.05;;;5.03;;
21354;SDS011;10835;50.148;19.760;2023-12-28T00:57:21;14.65;;;5.90;;
21354;SDS011;10835;50.148;19.760;2023-12-28T01:00:25;11.93;;;5.00;;
21354;SDS011;10835;50.148;19.760;2023-12-28T01:03:27;13.38;;;5.68;;
21354;SDS011;10835;50.148;19.760;2023-12-28T01:06:29;11.05;;;5.55;;
21354;SDS011;10835;50.148;19.760;2023-12-28T01:09:31;17.10;;;5.75;;
21354;SDS011;10835;50.148;19.760;2023-12-28T01:12:33;10.05;;;5.18;;
21354;SDS011;10835;50.148;19.760;2023-12-28T01:15:37;12.82;;;3.95;;
21354;SDS011;10835;50.148;19.760;2023-12-28T01:18:39;10.35;;;4.15;;
21354;SDS011;10835;50.148;19.760;2023-12-28T01:21:41;12.10;;;4.60;;
21354;SDS011;10835;50.148;19.760;2023-12-28T01:24:45;18.77;;;5.50;;
21354;SDS011;10835;50.148;19.760;2023-12-28T01:27:47;17.27;;;7.40;;
21354;SDS011;10835;50.148;19.760;2023-12-28T01:30:51;14.93;;;6.88;;
21354;SDS011;10835;50.148;19.760;2023-12-28T01:33:53;12.23;;;5.32;;
21354;SDS011;10835;50.148;19.760;2023-12-28T01:36:55;14.15;;;6.13;;
21354;SDS011;10835;50.148;19.760;2023-12-28T01:39:57;21.83;;;8.40;;
21354;SDS011;10835;50.148;19.760;2023-12-28T01:42:59;21.45;;;8.48;;
21354;SDS011;10835;50.148;19.760;2023-12-28T01:46:03;14.30;;;5.80;;
21354;SDS011;10835;50.148;19.760;2023-12-28T01:49:06;12.93;;;5.38;;
21354;SDS011;10835;50.148;19.760;2023-12-28T01:52:09;12.80;;;5.78;;
21354;SDS011;10835;50.148;19.760;2023-12-28T01:55:11;16.92;;;5.70;;
21354;SDS011;10835;50.148;19.760;2023-12-28T01:58:14;24.00;;;6.30;;
21354;SDS011;10835;50.148;19.760;2023-12-28T02:01:19;7.53;;;4.10;;
21354;SDS011;10835;50.148;19.760;2023-12-28T02:04:21;14.60;;;5.05;;
21354;SDS011;10835;50.148;19.760;2023-12-28T02:07:24;8.70;;;5.18;;
21354;SDS011;10835;50.148;19.760;2023-12-28T02:10:26;9.35;;;4.72;;
21354;SDS011;10835;50.148;19.760;2023-12-28T02:13:28;12.30;;;3.90;;
21354;SDS011;10835;50.148;19.760;2023-12-28T02:16:32;17.55;;;6.03;;
21354;SDS011;10835;50.148;19.760;2023-12-28T02:19:40;10.68;;;4.22;;
21354;SDS011;10835;50.148;19.760;2023-12-28T02:22:45;18.17;;;4.95;;
21354;SDS011;10835;50.148;19.760;2023-12-28T02:25:50;21.60;;;10.23;;
21354;SDS011;10835;50.148;19.760;2023-12-28T02:28:52;19.92;;;9.38;;
21354;SDS011;10835;50.148;19.760;2023-12-28T02:31:58;19.80;;;9.98;;
21354;SDS011;10835;50.148;19.760;2023-12-28T02:35:06;32.20;;;10.55;;
21354;SDS011;10835;50.148;19.760;2023-12-28T02:38:16;25.80;;;7.75;;
21354;SDS011;10835;50.148;19.760;2023-12-28T02:41:23;15.38;;;5.38;;
21354;SDS011;10835;50.148;19.760;2023-12-28T02:44:26;20.55;;;6.40;;
21354;SDS011;10835;50.148;19.760;2023-12-28T02:47:28;13.07;;;5.28;;
21354;SDS011;10835;50.148;19.760;2023-12-28T02:50:30;10.13;;;5.32;;
21354;SDS011;10835;50.148;19.760;2023-12-28T02:53:33;13.20;;;5.38;;
21354;SDS011;10835;50.148;19.760;2023-12-28T02:56:39;8.90;;;5.20;;
21354;SDS011;10835;50.148;19.760;2023-12-28T02:59:41;10.90;;;5.20;;
21354;SDS011;10835;50.148;19.760;2023-12-28T03:02:45;17.58;;;4.97;;
21354;SDS011;10835;50.148;19.760;2023-12-28T03:05:46;11.55;;;4.82;;
21354;SDS011;10835;50.148;19.760;2023-12-28T03:08:49;9.13;;;4.65;;
21354;SDS011;10835;50.148;19.760;2023-12-28T03:11:52;11.32;;;5.47;;
21354;SDS011;10835;50.148;19.760;2023-12-28T03:14:55;11.45;;;4.38;;
21354;SDS011;10835;50.148;19.760;2023-12-28T03:17:57;19.80;;;7.63;;
21354;SDS011;10835;50.148;19.760;2023-12-28T03:20:59;19.92;;;9.90;;
21354;SDS011;10835;50.148;19.760;2023-12-28T03:24:02;21.00;;;7.72;;
21354;SDS011;10835;50.148;19.760;2023-12-28T03:27:05;18.77;;;6.97;;
21354;SDS011;10835;50.148;19.760;2023-12-28T03:30:08;10.60;;;5.03;;
21354;SDS011;10835;50.148;19.760;2023-12-28T03:33:11;10.93;;;5.25;;
21354;SDS011;10835;50.148;19.760;2023-12-28T03:36:17;13.13;;;5.72;;
21354;SDS011;10835;50.148;19.760;2023-12-28T03:39:20;9.43;;;4.97;;
21354;SDS011;10835;50.148;19.760;2023-12-28T03:42:23;11.35;;;4.88;;
21354;SDS011;10835;50.148;19.760;2023-12-28T03:45:26;14.30;;;5.15;;
21354;SDS011;10835;50.148;19.760;2023-12-28T03:48:28;12.75;;;5.20;;
21354;SDS011;10835;50.148;19.760;2023-12-28T03:51:30;11.88;;;4.55;;
21354;SDS011;10835;50.148;19.760;2023-12-28T03:54:32;8.82;;;4.07;;
21354;SDS011;10835;50.148;19.760;2023-12-28T03:57:35;8.55;;;4.13;;
21354;SDS011;10835;50.148;19.760;2023-12-28T04:00:33;8.13;;;4.60;;
21354;SDS011;10835;50.148;19.760;2023-12-28T04:03:32;8.98;;;3.72;;
21354;SDS011;10835;50.148;19.760;2023-12-28T04:06:34;11.13;;;5.05;;
21354;SDS011;10835;50.148;19.760;2023-12-28T04:09:37;12.20;;;4.75;;
21354;SDS011;10835;50.148;19.760;2023-12-28T04:12:40;20.02;;;5.82;;
21354;SDS011;10835;50.148;19.760;2023-12-28T04:15:37;10.30;;;5.00;;
21354;SDS011;10835;50.148;19.760;2023-12-28T04:18:33;9.52;;;5.28;;
21354;SDS011;10835;50.148;19.760;2023-12-28T04:21:35;14.75;;;5.70;;
21354;SDS011;10835;50.148;19.760;2023-12-28T04:24:37;9.93;;;4.80;;
21354;SDS011;10835;50.148;19.760;2023-12-28T04:27:41;8.73;;;3.72;;
21354;SDS011;10835;50.148;19.760;2023-12-28T04:30:44;6.05;;;3.33;;
21354;SDS011;10835;50.148;19.760;2023-12-28T04:33:46;8.10;;;3.67;;
21354;SDS011;10835;50.148;19.760;2023-12-28T04:36:48;8.15;;;3.67;;
21354;SDS011;10835;50.148;19.760;2023-12-28T04:39:50;6.00;;;3.67;;
21354;SDS011;10835;50.148;19.760;2023-12-28T04:42:53;12.95;;;4.32;;
21354;SDS011;10835;50.148;19.760;2023-12-28T04:45:56;11.93;;;5.20;;
21354;SDS011;10835;50.148;19.760;2023-12-28T04:48:58;9.57;;;4.18;;
21354;SDS011;10835;50.148;19.760;2023-12-28T04:52:00;7.80;;;4.22;;
21354;SDS011;10835;50.148;19.760;2023-12-28T04:58:27;7.68;;;3.97;;
21354;SDS011;10835;50.148;19.760;2023-12-28T05:01:30;14.35;;;4.72;;
21354;SDS011;10835;50.148;19.760;2023-12-28T05:04:32;8.07;;;3.92;;
21354;SDS011;10835;50.148;19.760;2023-12-28T05:07:34;11.75;;;3.65;;
21354;SDS011;10835;50.148;19.760;2023-12-28T05:10:36;12.13;;;4.25;;
21354;SDS011;10835;50.148;19.760;2023-12-28T05:13:39;11.65;;;4.97;;
21354;SDS011;10835;50.148;19.760;2023-12-28T05:16:42;13.10;;;4.90;;
21354;SDS011;10835;50.148;19.760;2023-12-28T05:19:44;19.63;;;6.55;;
21354;SDS011;10835;50.148;19.760;2023-12-28T05:22:46;13.65;;;4.40;;
21354;SDS011;10835;50.148;19.760;2023-12-28T05:25:48;12.93;;;4.82;;
21354;SDS011;10835;50.148;19.760;2023-12-28T05:28:51;10.00;;;3.88;;
21354;SDS011;10835;50.148;19.760;2023-12-28T05:31:54;7.47;;;3.65;;
21354;SDS011;10835;50.148;19.760;2023-12-28T05:34:56;8.77;;;4.50;;
21354;SDS011;10835;50.148;19.760;2023-12-28T05:37:58;8.45;;;3.95;;
21354;SDS011;10835;50.148;19.760;2023-12-28T05:41:00;11.98;;;4.82;;
21354;SDS011;10835;50.148;19.760;2023-12-28T05:44:03;10.93;;;4.53;;
21354;SDS011;10835;50.148;19.760;2023-12-28T05:47:06;10.13;;;4.72;;
21354;SDS011;10835;50.148;19.760;2023-12-28T05:50:08;6.50;;;3.55;;
21354;SDS011;10835;50.148;19.760;2023-12-28T05:53:11;10.30;;;4.68;;
21354;SDS011;10835;50.148;19.760;2023-12-28T05:56:13;6.00;;;3.53;;
21354;SDS011;10835;50.148;19.760;2023-12-28T05:59:16;16.45;;;4.70;;
21354;SDS011;10835;50.148;19.760;2023-12-28T06:02:20;8.98;;;3.78;;
21354;SDS011;10835;50.148;19.760;2023-12-28T06:05:22;5.82;;;3.05;;
21354;SDS011;10835;50.148;19.760;2023-12-28T06:08:24;7.00;;;3.55;;
21354;SDS011;10835;50.148;19.760;2023-12-28T06:11:26;9.18;;;4.47;;
21354;SDS011;10835;50.148;19.760;2023-12-28T06:14:29;5.38;;;3.40;;
21354;SDS011;10835;50.148;19.760;2023-12-28T06:17:32;5.53;;;3.25;;
21354;SDS011;10835;50.148;19.760;2023-12-28T06:20:34;6.38;;;3.90;;
21354;SDS011;10835;50.148;19.760;2023-12-28T06:23:36;4.97;;;3.67;;
21354;SDS011;10835;50.148;19.760;2023-12-28T06:26:39;6.70;;;3.15;;
21354;SDS011;10835;50.148;19.760;2023-12-28T06:29:43;8.13;;;3.35;;
21354;SDS011;10835;50.148;19.760;2023-12-28T06:32:46;6.70;;;3.25;;
21354;SDS011;10835;50.148;19.760;2023-12-28T06:35:48;8.43;;;3.10;;
21354;SDS011;10835;50.148;19.760;2023-12-28T06:38:51;7.78;;;3.58;;
21354;SDS011;10835;50.148;19.760;2023-12-28T06:41:53;8.93;;;4.03;;
21354;SDS011;10835;50.148;19.760;2023-12-28T06:44:56;14.00;;;4.95;;
21354;SDS011;10835;50.148;19.760;2023-12-28T06:47:59;11.75;;;5.82;;
21354;SDS011;10835;50.148;19.760;2023-12-28T06:51:01;14.52;;;6.05;;
21354;SDS011;10835;50.148;19.760;2023-12-28T06:54:07;10.55;;;4.88;;
21354;SDS011;10835;50.148;19.760;2023-12-28T06:57:11;10.57;;;4.95;;
21354;SDS011;10835;50.148;19.760;2023-12-28T07:00:14;9.93;;;5.90;;
21354;SDS011;10835;50.148;19.760;2023-12-28T07:03:17;14.00;;;6.82;;
21354;SDS011;10835;50.148;19.760;2023-12-28T07:06:19;15.60;;;6.82;;
21354;SDS011;10835;50.148;19.760;2023-12-28T07:09:21;15.48;;;7.70;;
21354;SDS011;10835;50.148;19.760;2023-12-28T07:12:16;19.02;;;7.50;;
21354;SDS011;10835;50.148;19.760;2023-12-28T07:15:15;17.45;;;7.15;;
21354;SDS011;10835;50.148;19.760;2023-12-28T07:18:18;14.23;;;6.38;;
21354;SDS011;10835;50.148;19.760;2023-12-28T07:21:20;14.80;;;6.35;;
21354;SDS011;10835;50.148;19.760;2023-12-28T07:24:22;14.52;;;7.57;;
21354;SDS011;10835;50.148;19.760;2023-12-28T07:27:24;19.27;;;7.22;;
21354;SDS011;10835;50.148;19.760;2023-12-28T07:30:27;18.10;;;7.68;;
21354;SDS011;10835;50.148;19.760;2023-12-28T07:33:30;21.80;;;8.40;;
21354;SDS011;10835;50.148;19.760;2023-12-28T07:36:32;19.80;;;8.13;;
21354;SDS011;10835;50.148;19.760;2023-12-28T07:39:37;16.75;;;7.47;;
21354;SDS011;10835;50.148;19.760;2023-12-28T07:42:39;19.70;;;8.32;;
21354;SDS011;10835;50.148;19.760;2023-12-28T07:45:42;15.05;;;7.95;;
21354;SDS011;10835;50.148;19.760;2023-12-28T07:48:45;21.52;;;7.28;;
21354;SDS011;10835;50.148;19.760;2023-12-28T07:51:47;14.57;;;6.45;;
21354;SDS011;10835;50.148;19.760;2023-12-28T07:54:49;17.38;;;7.97;;
21354;SDS011;10835;50.148;19.760;2023-12-28T07:57:52;18.02;;;8.27;;
21354;SDS011;10835;50.148;19.760;2023-12-28T08:00:55;19.52;;;8.35;;
21354;SDS011;10835;50.148;19.760;2023-12-28T08:03:58;17.48;;;7.82;;
21354;SDS011;10835;50.148;19.760;2023-12-28T08:07:00;16.48;;;7.03;;
21354;SDS011;10835;50.148;19.760;2023-12-28T08:10:03;22.13;;;9.02;;
21354;SDS011;10835;50.148;19.760;2023-12-28T08:13:05;15.25;;;8.38;;
21354;SDS011;10835;50.148;19.760;2023-12-28T08:16:09;20.30;;;8.60;;
21354;SDS011;10835;50.148;19.760;2023-12-28T08:19:12;18.73;;;8.05;;
21354;SDS011;10835;50.148;19.760;2023-12-28T08:22:14;19.10;;;8.25;;
21354;SDS011;10835;50.148;19.760;2023-12-28T08:25:09;17.70;;;7.35;;
21354;SDS011;10835;50.148;19.760;2023-12-28T08:28:12;17.00;;;7.45;;
21354;SDS011;10835;50.148;19.760;2023-12-28T08:31:15;15.30;;;7.63;;
21354;SDS011;10835;50.148;19.760;2023-12-28T08:34:18;15.32;;;7.82;;
21354;SDS011;10835;50.148;19.760;2023-12-28T08:37:21;14.02;;;7.38;;
21354;SDS011;10835;50.148;19.760;2023-12-28T08:40:23;17.48;;;8.32;;
21354;SDS011;10835;50.148;19.760;2023-12-28T08:43:25;19.52;;;8.52;;
21354;SDS011;10835;50.148;19.760;2023-12-28T08:46:28;20.92;;;7.95;;
21354;SDS011;10835;50.148;19.760;2023-12-28T08:49:24;20.90;;;9.70;;
21354;SDS011;10835;50.148;19.760;2023-12-28T08:52:20;18.52;;;9.05;;
21354;SDS011;10835;50.148;19.760;2023-12-28T08:55:22;14.77;;;7.10;;
21354;SDS011;10835;50.148;19.760;2023-12-28T08:58:24;16.83;;;8.88;;
21354;SDS011;10835;50.148;19.760;2023-12-28T09:01:26;21.48;;;8.68;;
21354;SDS011;10835;50.148;19.760;2023-12-28T09:04:29;20.35;;;8.48;;
21354;SDS011;10835;50.148;19.760;2023-12-28T09:07:32;16.20;;;9.25;;
21354;SDS011;10835;50.148;19.760;2023-12-28T09:10:36;18.88;;;8.95;;
21354;SDS011;10835;50.148;19.760;2023-12-28T09:13:38;16.05;;;7.78;;
21354;SDS011;10835;50.148;19.760;2023-12-28T09:16:41;18.65;;;8.77;;
21354;SDS011;10835;50.148;19.760;2023-12-28T09:19:44;13.07;;;7.85;;
21354;SDS011;10835;50.148;19.760;2023-12-28T09:22:47;14.13;;;9.10;;
21354;SDS011;10835;50.148;19.760;2023-12-28T09:25:49;17.88;;;8.88;;
21354;SDS011;10835;50.148;19.760;2023-12-28T09:28:51;15.63;;;7.60;;
21354;SDS011;10835;50.148;19.760;2023-12-28T09:31:53;15.60;;;7.50;;
21354;SDS011;10835;50.148;19.760;2023-12-28T09:34:56;13.23;;;8.18;;
21354;SDS011;10835;50.148;19.760;2023-12-28T09:37:59;15.68;;;7.63;;
21354;SDS011;10835;50.148;19.760;2023-12-28T09:41:04;16.90;;;8.25;;
21354;SDS011;10835;50.148;19.760;2023-12-28T09:44:12;21.38;;;9.45;;
21354;SDS011;10835;50.148;19.760;2023-12-28T09:47:15;20.25;;;9.30;;
21354;SDS011;10835;50.148;19.760;2023-12-28T09:50:18;26.33;;;11.05;;
21354;SDS011;10835;50.148;19.760;2023-12-28T09:53:21;21.77;;;12.50;;
21354;SDS011;10835;50.148;19.760;2023-12-28T09:56:24;20.15;;;9.85;;
21354;SDS011;10835;50.148;19.760;2023-12-28T09:59:27;21.33;;;9.93;;
21354;SDS011;10835;50.148;19.760;2023-12-28T10:02:30;23.52;;;10.00;;
21354;SDS011;10835;50.148;19.760;2023-12-28T10:05:35;19.27;;;10.40;;
21354;SDS011;10835;50.148;19.760;2023-12-28T10:08:44;23.88;;;12.43;;
21354;SDS011;10835;50.148;19.760;2023-12-28T10:11:46;19.58;;;10.23;;
21354;SDS011;10835;50.148;19.760;2023-12-28T10:14:50;23.33;;;11.60;;
21354;SDS011;10835;50.148;19.760;2023-12-28T10:17:53;28.25;;;14.90;;
21354;SDS011;10835;50.148;19.760;2023-12-28T10:20:56;27.20;;;10.82;;
21354;SDS011;10835;50.148;19.760;2023-12-28T10:23:59;26.00;;;11.75;;
21354;SDS011;10835;50.148;19.760;2023-12-28T10:27:03;17.00;;;9.60;;
21354;SDS011;10835;50.148;19.760;2023-12-28T10:30:06;20.10;;;10.35;;
21354;SDS011;10835;50.148;19.760;2023-12-28T10:33:09;31.10;;;12.55;;
21354;SDS011;10835;50.148;19.760;2023-12-28T10:36:13;17.58;;;9.57;;
21354;SDS011;10835;50.148;19.760;2023-12-28T10:39:19;21.55;;;10.45;;
21354;SDS011;10835;50.148;19.760;2023-12-28T10:42:25;19.95;;;10.57;;
21354;SDS011;10835;50.148;19.760;2023-12-28T10:45:31;14.68;;;8.32;;
21354;SDS011;10835;50.148;19.760;2023-12-28T10:48:35;15.38;;;8.27;;
21354;SDS011;10835;50.148;19.760;2023-12-28T10:51:43;25.88;;;7.95;;
21354;SDS011;10835;50.148;19.760;2023-12-28T10:54:51;12.55;;;6.35;;
21354;SDS011;10835;50.148;19.760;2023-12-28T10:58:05;10.13;;;5.60;;
21354;SDS011;10835;50.148;19.760;2023-12-28T11:01:22;11.77;;;5.70;;
21354;SDS011;10835;50.148;19.760;2023-12-28T11:04:28;8.82;;;4.57;;
21354;SDS011;10835;50.148;19.760;2023-12-28T11:07:39;14.27;;;6.68;;
21354;SDS011;10835;50.148;19.760;2023-12-28T11:10:47;8.70;;;5.30;;
21354;SDS011;10835;50.148;19.760;2023-12-28T11:13:51;11.68;;;4.88;;
21354;SDS011;10835;50.148;19.760;2023-12-28T11:16:55;11.35;;;5.28;;
21354;SDS011;10835;50.148;19.760;2023-12-28T11:20:01;5.85;;;3.58;;
21354;SDS011;10835;50.148;19.760;2023-12-28T11:23:05;9.50;;;4.25;;
21354;SDS011;10835;50.148;19.760;2023-12-28T11:26:15;9.50;;;5.63;;
21354;SDS011;10835;50.148;19.760;2023-12-28T11:29:18;8.00;;;4.38;;
21354;SDS011;10835;50.148;19.760;2023-12-28T11:32:21;11.20;;;5.63;;
21354;SDS011;10835;50.148;19.760;2023-12-28T11:35:23;10.00;;;3.80;;
21354;SDS011;10835;50.148;19.760;2023-12-28T11:38:34;9.65;;;4.85;;
21354;SDS011;10835;50.148;19.760;2023-12-28T11:41:33;6.75;;;3.13;;
21354;SDS011;10835;50.148;19.760;2023-12-28T11:44:37;12.27;;;6.60;;
21354;SDS011;10835;50.148;19.760;2023-12-28T11:47:43;7.07;;;4.13;;
21354;SDS011;10835;50.148;19.760;2023-12-28T11:50:45;9.00;;;5.10;;
21354;SDS011;10835;50.148;19.760;2023-12-28T11:53:48;8.43;;;5.05;;
21354;SDS011;10835;50.148;19.760;2023-12-28T11:56:44;9.50;;;5.25;;
21354;SDS011;10835;50.148;19.760;2023-12-28T11:59:39;10.50;;;5.43;;
21354;SDS011;10835;50.148;19.760;2023-12-28T12:02:43;10.07;;;5.32;;
21354;SDS011;10835;50.148;19.760;2023-12-28T12:05:45;7.75;;;5.03;;
21354;SDS011;10835;50.148;19.760;2023-12-28T12:08:49;11.80;;;6.05;;
21354;SDS011;10835;50.148;19.760;2023-12-28T12:11:52;9.68;;;6.13;;
21354;SDS011;10835;50.148;19.760;2023-12-28T12:14:54;10.40;;;4.85;;
21354;SDS011;10835;50.148;19.760;2023-12-28T12:17:58;9.23;;;4.43;;
21354;SDS011;10835;50.148;19.760;2023-12-28T12:21:01;10.32;;;4.57;;
21354;SDS011;10835;50.148;19.760;2023-12-28T12:24:06;10.95;;;4.60;;
21354;SDS011;10835;50.148;19.760;2023-12-28T12:27:08;8.73;;;3.95;;
21354;SDS011;10835;50.148;19.760;2023-12-28T12:30:10;10.32;;;4.38;;
21354;SDS011;10835;50.148;19.760;2023-12-28T12:33:13;8.02;;;3.40;;
21354;SDS011;10835;50.148;19.760;2023-12-28T12:36:17;6.53;;;3.90;;
21354;SDS011;10835;50.148;19.760;2023-12-28T12:39:16;6.70;;;3.70;;
21354;SDS011;10835;50.148;19.760;2023-12-28T12:42:18;6.72;;;3.70;;
21354;SDS011;10835;50.148;19.760;2023-12-28T12:45:20;8.80;;;4.13;;
21354;SDS011;10835;50.148;19.760;2023-12-28T12:48:23;5.95;;;2.30;;
21354;SDS011;10835;50.148;19.760;2023-12-28T12:51:25;8.68;;;4.55;;
21354;SDS011;10835;50.148;19.760;2023-12-28T12:54:30;7.78;;;3.65;;
21354;SDS011;10835;50.148;19.760;2023-12-28T12:57:32;8.10;;;3.72;;
21354;SDS011;10835;50.148;19.760;2023-12-28T13:00:34;8.55;;;3.35;;
21354;SDS011;10835;50.148;19.760;2023-12-28T13:03:36;8.18;;;3.85;;
21354;SDS011;10835;50.148;19.760;2023-12-28T13:06:38;13.23;;;5.43;;
21354;SDS011;10835;50.148;19.760;2023-12-28T13:09:42;8.77;;;4.72;;
21354;SDS011;10835;50.148;19.760;2023-12-28T13:12:44;7.97;;;4.35;;
21354;SDS011;10835;50.148;19.760;2023-12-28T13:15:46;9.48;;;4.05;;
21354;SDS011;10835;50.148;19.760;2023-12-28T13:18:48;6.88;;;4.53;;
21354;SDS011;10835;50.148;19.760;2023-12-28T13:21:50;9.00;;;3.95;;
21354;SDS011;10835;50.148;19.760;2023-12-28T13:24:54;7.13;;;4.22;;
21354;SDS011;10835;50.148;19.760;2023-12-28T13:27:57;7.78;;;4.50;;
21354;SDS011;10835;50.148;19.760;2023-12-28T13:30:59;9.77;;;4.30;;
21354;SDS011;10835;50.148;19.760;2023-12-28T13:34:01;10.55;;;4.18;;
21354;SDS011;10835;50.148;19.760;2023-12-28T13:37:03;6.47;;;4.00;;
21354;SDS011;10835;50.148;19.760;2023-12-28T13:40:07;5.82;;;3.45;;
21354;SDS011;10835;50.148;19.760;2023-12-28T13:43:10;6.30;;;3.92;;
21354;SDS011;10835;50.148;19.760;2023-12-28T13:46:12;4.60;;;2.80;;
21354;SDS011;10835;50.148;19.760;2023-12-28T13:49:14;7.28;;;4.03;;
21354;SDS011;10835;50.148;19.760;2023-12-28T13:52:20;8.90;;;3.70;;
21354;SDS011;10835;50.148;19.760;2023-12-28T13:55:24;8.60;;;4.22;;
21354;SDS011;10835;50.148;19.760;2023-12-28T13:58:28;6.65;;;3.30;;
21354;SDS011;10835;50.148;19.760;2023-12-28T14:01:30;3.83;;;2.35;;
21354;SDS011;10835;50.148;19.760;2023-12-28T14:04:32;12.23;;;5.10;;
21354;SDS011;10835;50.148;19.760;2023-12-28T14:07:34;21.85;;;4.95;;
21354;SDS011;10835;50.148;19.760;2023-12-28T14:10:38;7.55;;;3.90;;
21354;SDS011;10835;50.148;19.760;2023-12-28T14:13:40;9.07;;;4.25;;
21354;SDS011;10835;50.148;19.760;2023-12-28T14:16:42;8.25;;;4.55;;
21354;SDS011;10835;50.148;19.760;2023-12-28T14:19:44;10.18;;;4.07;;
21354;SDS011;10835;50.148;19.760;2023-12-28T14:22:48;9.82;;;4.88;;
21354;SDS011;10835;50.148;19.760;2023-12-28T14:25:55;8.68;;;4.22;;
21354;SDS011;10835;50.148;19.760;2023-12-28T14:28:59;9.50;;;5.20;;
21354;SDS011;10835;50.148;19.760;2023-12-28T14:32:02;11.20;;;5.53;;
21354;SDS011;10835;50.148;19.760;2023-12-28T14:35:05;9.18;;;5.40;;
21354;SDS011;10835;50.148;19.760;2023-12-28T14:38:09;10.20;;;5.93;;
21354;SDS011;10835;50.148;19.760;2023-12-28T14:41:13;12.10;;;5.43;;
21354;SDS011;10835;50.148;19.760;2023-12-28T14:44:15;6.13;;;3.45;;
21354;SDS011;10835;50.148;19.760;2023-12-28T14:47:17;9.52;;;4.35;;
21354;SDS011;10835;50.148;19.760;2023-12-28T14:50:19;11.13;;;4.68;;
21354;SDS011;10835;50.148;19.760;2023-12-28T14:53:21;7.30;;;3.60;;
21354;SDS011;10835;50.148;19.760;2023-12-28T14:56:25;6.07;;;3.55;;
21354;SDS011;10835;50.148;19.760;2023-12-28T14:59:34;7.40;;;3.45;;
21354;SDS011;10835;50.148;19.760;2023-12-28T15:02:37;5.93;;;2.58;;
21354;SDS011;10835;50.148;19.760;2023-12-28T15:05:32;7.38;;;2.80;;
21354;SDS011;10835;50.148;19.760;2023-12-28T15:08:28;4.20;;;2.58;;
21354;SDS011;10835;50.148;19.760;2023-12-28T15:11:38;4.53;;;2.35;;
21354;SDS011;10835;50.148;19.760;2023-12-28T15:14:41;6.32;;;2.95;;
21354;SDS011;10835;50.148;19.760;2023-12-28T15:17:44;5.07;;;2.95;;
21354;SDS011;10835;50.148;19.760;2023-12-28T15:20:47;3.08;;;1.80;;
21354;SDS011;10835;50.148;19.760;2023-12-28T15:23:50;5.85;;;3.03;;
21354;SDS011;10835;50.148;19.760;2023-12-28T15:26:54;6.00;;;3.00;;
21354;SDS011;10835;50.148;19.760;2023-12-28T15:29:56;5.68;;;2.83;;
21354;SDS011;10835;50.148;19.760;2023-12-28T15:32:58;6.65;;;3.33;;
21354;SDS011;10835;50.148;19.760;2023-12-28T15:36:00;3.38;;;2.55;;
21354;SDS011;10835;50.148;19.760;2023-12-28T15:39:02;6.22;;;2.70;;
21354;SDS011;10835;50.148;19.760;2023-12-28T15:42:06;4.97;;;2.08;;
21354;SDS011;10835;50.148;19.760;2023-12-28T15:45:08;7.03;;;3.83;;
21354;SDS011;10835;50.148;19.760;2023-12-28T15:48:11;5.97;;;3.10;;
21354;SDS011;10835;50.148;19.760;2023-12-28T15:51:13;6.15;;;2.75;;
21354;SDS011;10835;50.148;19.760;2023-12-28T15:54:16;5.85;;;3.03;;
21354;SDS011;10835;50.148;19.760;2023-12-28T15:57:20;5.70;;;3.35;;
21354;SDS011;10835;50.148;19.760;2023-12-28T16:00:22;5.68;;;3.42;;
21354;SDS011;10835;50.148;19.760;2023-12-28T16:03:24;7.50;;;3.05;;
21354;SDS011;10835;50.148;19.760;2023-12-28T16:06:19;3.15;;;2.25;;
21354;SDS011;10835;50.148;19.760;2023-12-28T16:09:14;7.88;;;3.30;;
21354;SDS011;10835;50.148;19.760;2023-12-28T16:12:16;7.43;;;3.95;;
21354;SDS011;10835;50.148;19.760;2023-12-28T16:15:20;15.25;;;5.72;;
21354;SDS011;10835;50.148;19.760;2023-12-28T16:18:25;10.52;;;5.20;;
21354;SDS011;10835;50.148;19.760;2023-12-28T16:21:28;8.95;;;3.92;;
21354;SDS011;10835;50.148;19.760;2023-12-28T16:24:30;8.40;;;3.72;;
21354;SDS011;10835;50.148;19.760;2023-12-28T16:27:32;7.53;;;3.65;;
21354;SDS011;10835;50.148;19.760;2023-12-28T16:30:36;6.18;;;3.28;;
21354;SDS011;10835;50.148;19.760;2023-12-28T16:33:39;9.23;;;3.65;;
21354;SDS011;10835;50.148;19.760;2023-12-28T16:36:34;11.23;;;5.57;;
21354;SDS011;10835;50.148;19.760;2023-12-28T16:39:29;14.52;;;6.07;;
21354;SDS011;10835;50.148;19.760;2023-12-28T16:42:31;10.90;;;5.03;;
21354;SDS011;10835;50.148;19.760;2023-12-28T16:45:33;9.18;;;4.93;;
21354;SDS011;10835;50.148;19.760;2023-12-28T16:48:37;8.13;;;4.70;;
21354;SDS011;10835;50.148;19.760;2023-12-28T16:51:39;7.90;;;4.40;;
21354;SDS011;10835;50.148;19.760;2023-12-28T16:54:42;5.18;;;3.22;;
21354;SDS011;10835;50.148;19.760;2023-12-28T16:57:45;8.52;;;4.35;;
21354;SDS011;10835;50.148;19.760;2023-12-28T17:00:48;6.93;;;3.90;;
21354;SDS011;10835;50.148;19.760;2023-12-28T17:03:51;6.65;;;3.97;;
21354;SDS011;10835;50.148;19.760;2023-12-28T17:06:53;5.35;;;3.50;;
21354;SDS011;10835;50.148;19.760;2023-12-28T17:09:55;6.43;;;3.70;;
21354;SDS011;10835;50.148;19.760;2023-12-28T17:12:58;7.82;;;4.10;;
21354;SDS011;10835;50.148;19.760;2023-12-28T17:16:02;8.70;;;3.70;;
21354;SDS011;10835;50.148;19.760;2023-12-28T17:19:05;9.55;;;3.92;;
21354;SDS011;10835;50.148;19.760;2023-12-28T17:22:08;8.23;;;4.55;;
21354;SDS011;10835;50.148;19.760;2023-12-28T17:25:17;6.25;;;3.88;;
21354;SDS011;10835;50.148;19.760;2023-12-28T17:28:27;5.45;;;3.50;;
21354;SDS011;10835;50.148;19.760;2023-12-28T17:31:37;6.88;;;3.90;;
21354;SDS011;10835;50.148;19.760;2023-12-28T17:34:40;7.53;;;4.40;;
21354;SDS011;10835;50.148;19.760;2023-12-28T17:37:36;9.93;;;4.10;;
21354;SDS011;10835;50.148;19.760;2023-12-28T17:40:32;8.77;;;5.00;;
21354;SDS011;10835;50.148;19.760;2023-12-28T17:43:36;10.75;;;4.55;;
21354;SDS011;10835;50.148;19.760;2023-12-28T17:46:44;7.55;;;4.35;;
21354;SDS011;10835;50.148;19.760;2023-12-28T17:49:50;8.60;;;4.97;;
21354;SDS011;10835;50.148;19.760;2023-12-28T17:52:53;8.20;;;4.95;;
21354;SDS011;10835;50.148;19.760;2023-12-28T17:55:56;9.60;;;5.28;;
21354;SDS011;10835;50.148;19.760;2023-12-28T17:58:58;6.50;;;4.05;;